メインページ
METAR-TAF:

METAR-TAF

空港 :

コーク空港

コーク, アイルランド

緯度: 51-51N, 経度: 008-29W, 海抜: 153m

現時点の気象観測

当レポートは27分前の20:30(UTC)に作成
北/北西の風 8kt
気温 20°C
湿度 56%
気圧 1017 hPa
視程10km以上
高度2600ftの雲はほとんどない

METAR: EICK 212030Z 33008KT 9999 FEW026 20/11 Q1017 NOSIG

時間: 21:57 (20:57 UTC)

予報

当レポートは42分前の20:15(UTC)に作成
予報は21日の 20時(UTC)から 22日の 18時(UTC)まで有効
北西の風 7kt
視程10km以上
高度3000ftの雲は散在している
22日の 02時(UTC)から 22日の 09時(UTC)まで一時的に
高度900ftの千切れ雲あり
確率 30% :
22日の 04時(UTC)から 22日の 08時(UTC)まで一時的に
視程: 3000m
高度400ftの千切れ雲あり
22日の 08時(UTC)から 22日の 11時(UTC)まで徐々に
変向風 3kt
22日の 11時(UTC)から 22日の 13時(UTC)まで徐々に
南/南西の風 10kt

TAF: EICK 212015Z 2120/2218 32007KT 9999 SCT030 TEMPO 2202/2209 BKN009 PROB30 TEMPO 2204/2208 3000 BR BKN004 BECMG 2208/2211 VRB03KT BECMG 2211/2213 20010KT

4,000以上の空港の気象観測と天気予報(METAR報とTAF報)

利用可能な観測所は地図上に黄色い丸と赤い丸で示す。

丸の上にカーソルを重ねると観測所名を参照できる。

次にクリックすると気象観測と天気予報を参照できる。

マップの切り替え:黒色「×」印の緑ボタンをクリックして拡大、「-」印の緑ボタンをクリックして縮小、緑色の三角印をクリックして隣りの地図に切り替え


METAR-TAF: